• Join FlightAware (Why Join?)
  • Login
  • US Flag 
02:31AM EDT


 

Airport Tracker/Info


-or-


 

Live Flight TrackerFlight Track Log ✈ AAL24 ✈ 08-May-2013 ✈ KSFO - KJFK

Flight Track Log - Related Links

Times and Time Zones

All times are in EDT time to prevent confusion due to time zone crossing. See the AAL24 flight status page for this flight to view local times or setup timezone preferences in your user account.

Time Position Orientation Groundspeed Altitude Reporting Facility
EDT Latitude Longitude Course Direction KTS MPH feet Rate Location/Type
10:13AM 37.6333 -122.3667 31° Northeast 176 203 800  Level Northern Cal TRACON
10:13AM 37.6667 -122.3167 50° Northeast 213 245 2,400 2,220 Climbing Northern Cal TRACON
10:14AM 37.7167 -122.2500 47° Northeast 271 312 5,100 2,460 Climbing Northern Cal TRACON
10:15AM 37.6472 -122.4520 119° Southeast  Level FlightAware Approximate
10:15AM 37.7319 -122.2403 27° Northeast 247 284 5,600  Level Oakland Center
10:16AM 37.6510 -122.3323 38° Northeast  Level FlightAware Approximate
10:16AM 37.7942 -122.1800 37° Northeast 276 318 9,100  Level Oakland Center
10:17AM 37.7433 -122.2368 46° Northeast  Level FlightAware Approximate
10:17AM 37.8578 -122.1197 37° Northeast 286 329 11,600  Level Oakland Center
10:18AM 37.8360 -122.1439 31° Northeast  Level FlightAware Approximate
10:18AM 37.9344 -122.0483 36° Northeast 339 390 13,800  Level Oakland Center
10:19AM 38.0153 -121.9678 38° Northeast 368 423 16,100 2,640 Climbing Oakland Center
10:20AM 38.1203 -121.8642 38° Northeast 398 458 19,200 2,640 Climbing Oakland Center
10:21AM 38.2106 -121.7775 37° Northeast 407 468 21,500 2,100 Climbing Oakland Center
10:22AM 38.3042 -121.6861 37° Northeast 422 486 23,500 1,980 Climbing Oakland Center
10:23AM 38.4011 -121.5919 37° Northeast 438 504 25,600 1,920 Climbing Oakland Center
10:24AM 38.4864 -121.4794 46° Northeast 443 510 27,500 1,620 Climbing Oakland Center
10:25AM 38.5608 -121.3514 53° Northeast 450 518 29,000 720 Climbing Oakland Center
10:26AM 38.6333 -121.2233 54° Northeast 448 516 29,000  Level Oakland Center
10:27AM 38.7058 -121.1019 53° Northeast 447 514 29,000  Level Oakland Center
10:28AM 38.7800 -120.9733 53° Northeast 448 516 29,000  Level Oakland Center
10:29AM 38.8692 -120.8181 54° Northeast 450 518 29,000  Level Oakland Center
10:30AM 38.9439 -120.6886 53° Northeast 451 519 29,000  Level Oakland Center
10:31AM 39.0181 -120.5600 53° Northeast 448 516 29,000  Level Oakland Center
10:32AM 39.0906 -120.4317 54° Northeast 445 512 29,000  Level Oakland Center
10:33AM 39.1647 -120.3053 53° Northeast 442 509 29,000  Level Oakland Center
10:34AM 39.2358 -120.1786 54° Northeast 438 504 29,000  Level Oakland Center
10:35AM 39.3169 -120.0350 54° Northeast 439 505 29,000  Level Oakland Center
10:36AM 39.3892 -119.9086 53° Northeast 437 503 29,000  Level Oakland Center
10:37AM 39.4608 -119.7803 54° Northeast 439 505 29,000  Level Oakland Center
10:38AM 39.5328 -119.6525 54° Northeast 439 505 29,000  Level Oakland Center
10:39AM 39.6047 -119.5244 54° Northeast 438 504 29,000  Level Oakland Center
10:40AM 39.6761 -119.3942 55° Northeast 440 506 29,000  Level Oakland Center
10:41AM 39.7489 -119.2642 54° Northeast 442 509 29,000  Level Oakland Center
10:42AM 39.8208 -119.1342 54° Northeast 440 506 29,000  Level Oakland Center
10:43AM 39.8922 -119.0033 55° Northeast 440 506 29,000  Level Oakland Center
10:44AM 39.9650 -118.8719 54° Northeast 444 511 29,000  Level Oakland Center
10:45AM 40.0367 -118.7411 54° Northeast 442 509 29,000  Level Oakland Center
10:46AM 40.1067 -118.6086 55° Northeast 442 509 29,000  Level Oakland Center
10:47AM 40.1578 -118.4619 65° Northeast 445 512 29,000  Level Oakland Center
10:48AM 40.1967 -118.3189 70° East 448 516 29,000  Level Salt Lake Center
10:49AM 40.2492 -118.1219 71° East 446 513 29,000  Level Oakland Center
10:50AM 40.2889 -117.9753 70° East 449 517 29,000  Level Oakland Center
10:51AM 40.3294 -117.8294 70° East 447 514 29,000  Level Oakland Center
10:52AM 40.3694 -117.6814 70° East 447 514 29,000  Level Salt Lake Center
10:53AM 40.4086 -117.5344 71° East 446 513 29,000  Level Salt Lake Center
10:54AM 40.4536 -117.3636 71° East 444 511 29,000  Level Salt Lake Center
10:55AM 40.4922 -117.2167 71° East 442 509 29,000  Level Salt Lake Center
10:57AM 40.5375 -117.0433 71° East 445 512 29,000  Level Salt Lake Center
10:58AM 40.5764 -116.8939 71° East 444 511 29,000  Level Salt Lake Center
10:59AM 40.6161 -116.7467 70° East 442 509 29,000  Level Salt Lake Center
11:00AM 40.6631 -116.5750 70° East 443 510 29,000  Level Salt Lake Center
11:01AM 40.7036 -116.4278 70° East 444 511 29,000  Level Salt Lake Center
11:02AM 40.7492 -116.2561 71° East 444 511 29,000  Level Salt Lake Center
11:03AM 40.7886 -116.1069 71° East 447 514 29,000  Level Salt Lake Center
11:04AM 40.8267 -115.9600 71° East 444 511 29,000  Level Salt Lake Center
11:05AM 40.8728 -115.7869 71° East 445 512 29,000  Level Salt Lake Center
11:06AM 40.9117 -115.6389 71° East 446 513 29,000  Level Salt Lake Center
11:07AM 40.9561 -115.4639 71° East 449 517 29,000  Level Salt Lake Center
11:08AM 40.9947 -115.3158 71° East 447 514 29,000  Level Salt Lake Center
11:09AM 41.0389 -115.1400 72° East 450 518 29,000  Level Salt Lake Center
11:10AM 41.0775 -114.9897 71° East 450 518 29,000  Level Salt Lake Center
11:11AM 41.1228 -114.8106 71° East 450 518 29,000  Level Salt Lake Center
11:12AM 41.1611 -114.6525 72° East 451 519 29,000  Level Salt Lake Center
11:13AM 41.2006 -114.4953 72° East 450 518 29,000  Level Salt Lake Center
11:14AM 41.2408 -114.3381 71° East 450 518 29,000  Level Salt Lake Center
11:15AM 41.2789 -114.1800 72° East 450 518 29,000  Level Salt Lake Center
11:16AM 41.3169 -114.0222 72° East 449 517 29,000  Level Salt Lake Center
11:17AM 41.3611 -113.8325 73° East 449 517 29,000  Level Salt Lake Center
11:18AM 41.3764 -113.6686 83° East 448 516 29,000  Level Salt Lake Center
11:19AM 41.3850 -113.5039 86° East 447 514 29,000  Level Salt Lake Center
11:20AM 41.3947 -113.3389 85° East 447 514 29,000  Level Salt Lake Center
11:21AM 41.4047 -113.1733 85° East 449 517 29,000  Level Salt Lake Center
11:22AM 41.4164 -113.0081 85° East 449 517 29,000  Level Salt Lake Center
11:23AM 41.4272 -112.8097 86° East 448 516 29,000  Level Salt Lake Center
11:24AM 41.4367 -112.6442 86° East 448 516 29,000  Level Salt Lake Center
11:25AM 41.4464 -112.4789 85° East 447 514 29,000  Level Salt Lake Center
11:26AM 41.4556 -112.3122 86° East 450 518 29,000  Level Salt Lake Center
11:28AM 41.4650 -112.1469 86° East 447 514 29,000  Level Salt Lake Center
11:30AM 41.4825 -111.8133 86° East 448 516 29,000  Level Salt Lake Center
11:31AM 41.4906 -111.6472 86° East 447 514 29,000  Level Salt Lake Center
11:32AM 41.5000 -111.4483 86° East 444 511 29,000  Level Salt Lake Center
11:33AM 41.5083 -111.2825 86° East 447 514 29,000  Level Salt Lake Center
11:34AM 41.5142 -111.1189 87° East 443 510 29,000  Level Salt Lake Center
11:35AM 41.5231 -110.9389 86° East 445 512 29,000  Level Salt Lake Center
11:36AM 41.5294 -110.7817 87° East 445 512 29,000  Level Salt Lake Center
11:37AM 41.5378 -110.5981 86° East 444 511 29,000  Level Salt Lake Center
11:38AM 41.5439 -110.4414 87° East 444 511 29,000  Level Salt Lake Center
11:39AM 41.5497 -110.2575 88° East 444 511 29,000  Level Salt Lake Center
11:40AM 41.5558 -110.0994 87° East 445 512 29,000  Level Salt Lake Center
11:41AM 41.5619 -109.9408 87° East 446 513 29,000 720 Level Salt Lake Center
11:42AM 41.5681 -109.7575 87° East 443 510 30,500 1,560 Climbing Salt Lake Center
11:43AM 41.5731 -109.6061 87° East 430 495 32,300 1,800 Climbing Salt Lake Center
11:44AM 41.5789 -109.4258 87° East 432 497 34,300 1,260 Climbing Salt Lake Center
11:45AM 41.5831 -109.2744 88° East 426 490 35,000 300 Climbing Salt Lake Center
11:46AM 41.5878 -109.0981 88° East 421 484 35,000  Level Salt Lake Center
11:47AM 41.5950 -108.9481 86° East 417 480 35,000  Level Salt Lake Center
11:48AM 41.6075 -108.7989 84° East 420 483 35,000  Level Salt Lake Center
11:49AM 41.6208 -108.6253 84° East 421 484 35,000  Level Salt Lake Center
11:50AM 41.6314 -108.4772 85° East 418 481 35,000  Level Salt Lake Center
11:51AM 41.6439 -108.3022 84° East 422 486 35,000  Level Salt Lake Center
11:52AM 41.6544 -108.1519 85° East 424 488 35,000  Level Salt Lake Center
11:53AM 41.6667 -107.9994 84° East 428 493 35,000  Level Denver Center
11:54AM 41.6786 -107.8253 85° East 425 489 35,000  Level Denver Center
11:55AM 41.6892 -107.6736 85° East 428 493 35,000  Level Denver Center
11:56AM 41.7003 -107.4972 85° East 428 493 35,000  Level Denver Center
11:57AM 41.7103 -107.3467 85° East 427 491 35,000  Level Denver Center
11:58AM 41.7206 -107.1681 86° East 431 496 35,000  Level Denver Center
11:59AM 41.7308 -107.0178 85° East 427 491 35,000  Level Denver Center
12:00PM 41.7400 -106.8647 85° East 431 496 35,000  Level Denver Center
12:02PM 41.7508 -106.6878 85° East 430 495 35,000  Level Denver Center
12:03PM 41.7597 -106.5361 85° East 430 495 35,000  Level Denver Center
12:04PM 41.7711 -106.3614 85° East 426 490 35,000  Level Denver Center
12:05PM 41.7803 -106.2100 85° East 426 490 35,000  Level Denver Center
12:06PM 41.7889 -106.0306 86° East 431 496 35,000  Level Denver Center
12:07PM 41.7972 -105.8786 86° East 430 495 35,000  Level Denver Center
12:08PM 41.8050 -105.7019 87° East 427 491 35,000  Level Denver Center
12:09PM 41.8131 -105.5514 86° East 425 489 35,000  Level Denver Center
12:10PM 41.8211 -105.3758 86° East 425 489 35,000  Level Denver Center
12:11PM 41.8275 -105.2250 87° East 425 489 35,000  Level Denver Center
12:12PM 41.8358 -105.0469 86° East 428 493 35,000  Level Denver Center
12:13PM 41.8422 -104.8947 87° East 429 494 35,000  Level Denver Center
12:14PM 41.8594 -104.7183 82° East 431 496 35,000  Level Denver Center
12:15PM 41.8797 -104.5661 80° East 432 497 35,000  Level Denver Center
12:16PM 41.9028 -104.3906 80° East 432 497 35,000  Level Denver Center
12:17PM 41.9214 -104.2386 81° East 434 499 35,000  Level Denver Center
12:18PM 41.9442 -104.0594 80° East 437 503 35,000  Level Denver Center
12:19PM 41.9628 -103.9069 81° East 435 501 35,000  Level Denver Center
12:20PM 41.9842 -103.7283 81° East 436 502 35,000  Level Denver Center
12:21PM 42.0028 -103.5733 81° East 439 505 35,000  Level Denver Center
12:22PM 42.0250 -103.3931 81° East 440 506 35,000  Level Denver Center
12:23PM 42.0419 -103.2383 82° East 439 505 35,000  Level Denver Center
12:24PM 42.0633 -103.0564 81° East 441 507 35,000  Level Denver Center
12:25PM 42.0803 -102.9000 82° East 442 509 35,000  Level Denver Center
12:26PM 42.1006 -102.7197 81° East 437 503 35,000  Level Denver Center
12:27PM 42.1164 -102.5639 82° East 439 505 35,000  Level Denver Center
12:28PM 42.1367 -102.3828 81° East 439 505 35,000  Level Denver Center
12:29PM 42.1542 -102.2261 81° East 440 506 35,000  Level Denver Center
12:30PM 42.1708 -102.0572 82° East 439 505 35,000  Level Denver Center
12:32PM 42.1867 -101.9006 82° East 441 507 35,000  Level Denver Center
12:33PM 42.2069 -101.7158 82° East 445 512 35,000  Level Denver Center
12:34PM 42.2217 -101.5594 83° East 442 509 35,000  Level Denver Center
12:35PM 42.2411 -101.3719 82° East 450 518 35,000  Level Denver Center
12:36PM 42.2556 -101.2125 83° East 448 516 35,000  Level Denver Center
12:37PM 42.2736 -101.0244 83° East 452 520 35,000  Level Denver Center
12:38PM 42.2892 -100.8631 83° East 453 521 35,000  Level Denver Center
12:39PM 42.3061 -100.6722 83° East 458 527 35,000  Level Denver Center
12:40PM 42.3189 -100.5344 83° East 460 529 35,000  Level Denver Center
12:41PM 42.3386 -100.3147 83° East 461 531 35,000  Level Denver Center
12:42PM 42.3536 -100.1475 83° East 465 535 35,000  Level Denver Center
12:42PM 42.3628 -100.0464 83° East 462 532 35,000  Level Minneapolis Center
12:43PM 42.3669 -99.9811 85° East 466 536 35,000  Level Denver Center
12:43PM 42.3772 -99.8703 83° East 469 540 35,000  Level Minneapolis Center
12:44PM 42.3917 -99.6917 84° East 476 548 35,000  Level Minneapolis Center
12:45PM 42.4056 -99.5231 84° East 480 552 35,000  Level Minneapolis Center
12:46PM 42.4128 -99.4267 84° East 482 555 35,000  Level Denver Center
12:47PM 42.4197 -99.3417 84° East 484 557 35,000  Level Minneapolis Center
12:48PM 42.4369 -99.1225 84° East 487 560 35,000  Level Minneapolis Center
12:49PM 42.4486 -98.9733 84° East 492 566 35,000  Level Minneapolis Center
12:50PM 42.4644 -98.7497 84° East 497 572 35,000  Level Minneapolis Center
12:51PM 42.4775 -98.5617 85° East 500 575 35,000  Level Minneapolis Center
12:52PM 42.4853 -98.3711 87° East 505 581 35,000  Level Minneapolis Center
12:53PM 42.4947 -98.1811 86° East 506 582 35,000  Level Minneapolis Center
12:54PM 42.5033 -97.9564 87° East 502 578 35,000  Level Minneapolis Center
12:55PM 42.5111 -97.7656 87° East 504 580 35,000  Level Minneapolis Center
12:56PM 42.5203 -97.5728 86° East 508 585 35,000  Level Minneapolis Center
12:57PM 42.5297 -97.3808 86° East 510 587 35,000  Level Minneapolis Center
12:58PM 42.5364 -97.1903 87° East 508 585 35,000  Level Minneapolis Center
12:59PM 42.5453 -96.9997 86° East 507 583 35,000  Level Minneapolis Center
01:00PM 42.5508 -96.8492 87° East 505 581 35,000  Level Minneapolis Center
01:01PM 42.5586 -96.5842 88° East 502 578 35,000  Level Minneapolis Center
01:02PM 42.5656 -96.3972 87° East 499 574 35,000  Level Minneapolis Center
01:03PM 42.5708 -96.2075 88° East 500 575 35,000 540 Level Minneapolis Center
01:04PM 42.5767 -96.0181 88° East 502 578 36,200 960 Climbing Minneapolis Center
01:05PM 42.5819 -95.8333 88° East 495 570 37,000 360 Climbing Minneapolis Center
01:06PM 42.5867 -95.6531 88° East 484 557 37,000  Level Minneapolis Center
01:07PM 42.5903 -95.4656 88° East 489 563 37,000  Level Minneapolis Center
01:08PM 42.5950 -95.2811 88° East 490 564 37,000  Level Minneapolis Center
01:09PM 42.5992 -95.0572 88° East 492 566 37,000  Level Minneapolis Center
01:10PM 42.6025 -94.8725 89° East 492 566 37,000  Level Minneapolis Center
01:11PM 42.6050 -94.6881 89° East 490 564 37,000  Level Minneapolis Center
01:12PM 42.6069 -94.5083 89° East 489 563 37,000  Level Minneapolis Center
01:13PM 42.6092 -94.3669 89° East 482 555 37,000  Level Minneapolis Center
01:14PM 42.6119 -94.1558 89° East 473 544 37,000  Level Minneapolis Center
01:15PM 42.6131 -93.9467 90° East 468 539 37,000  Level Minneapolis Center
01:16PM 42.6144 -93.7728 89° East 466 536 37,000  Level Minneapolis Center
01:18PM 42.6150 -93.6003 90° East 465 535 37,000  Level Minneapolis Center
01:19PM 42.6158 -93.3919 90° East 465 535 37,000  Level Minneapolis Center
01:20PM 42.6164 -93.1508 90° East 461 531 37,000  Level Minneapolis Center
01:21PM 42.6164 -92.9775 90° East 465 535 37,000  Level Minneapolis Center
01:22PM 42.6158 -92.8053 90° East 462 532 37,000  Level Minneapolis Center
01:23PM 42.6153 -92.6339 90° East 461 531 37,000  Level Minneapolis Center
01:24PM 42.6139 -92.4606 91° East 464 534 37,000  Level Minneapolis Center
01:25PM 42.6119 -92.2547 91° East 463 533 37,000  Level Minneapolis Center
01:26PM 42.6103 -92.1161 91° East 463 533 37,000  Level Chicago Center
01:27PM 42.6089 -91.9456 91° East 460 529 37,000  Level Chicago Center
01:28PM 42.6075 -91.7744 91° East 463 533 37,000  Level Chicago Center
01:29PM 42.6044 -91.5711 91° East 464 534 37,000  Level Chicago Center
01:30PM 42.6033 -91.4028 90° East 460 529 37,000  Level Chicago Center
01:31PM 42.6000 -91.2328 91° East 460 529 37,000  Level Chicago Center
01:32PM 42.5961 -91.0597 92° East 465 535 37,000  Level Chicago Center
01:33PM 42.5931 -90.8542 91° East 462 532 37,000  Level Chicago Center
01:34PM 42.5889 -90.6806 92° East 466 536 37,000  Level Chicago Center
01:35PM 42.5853 -90.5086 92° East 462 532 37,000  Level Chicago Center
01:36PM 42.5817 -90.3356 92° East 465 535 37,000  Level Chicago Center
01:37PM 42.5764 -90.1639 92° East 463 533 37,000  Level Chicago Center
01:38PM 42.5708 -89.9564 92° East 462 532 37,000  Level Chicago Center
01:39PM 42.5653 -89.7906 93° East 465 535 37,000  Level Chicago Center
01:40PM 42.5611 -89.6172 92° East 462 532 37,000  Level Chicago Center
01:41PM 42.5544 -89.4114 92° East 467 537 37,000  Level Chicago Center
01:42PM 42.5481 -89.2364 93° East 466 536 37,000  Level Chicago Center
01:44PM 42.5411 -89.0614 93° East 464 534 37,000  Level Chicago Center
01:45PM 42.5361 -88.8881 92° East 464 534 37,000  Level Chicago Center
01:46PM 42.5289 -88.7128 93° East 466 536 37,000  Level Chicago Center
01:47PM 42.5214 -88.5094 93° East 466 536 37,000  Level Chicago Center
01:48PM 42.5144 -88.3353 93° East 465 535 37,000  Level Chicago Center
01:49PM 42.5072 -88.1642 93° East 459 528 37,000  Level Chicago Center
01:50PM 42.5000 -87.9944 93° East 454 522 37,000  Level Chicago Center
01:51PM 42.4997 -87.7958 90° East 455 524 37,000  Level Chicago Center
01:52PM 42.4994 -87.6447 90° East 451 519 37,000  Level Chicago Center
01:53PM 42.4986 -87.4758 90° East 450 518 37,000  Level Chicago Center
01:54PM 42.4981 -87.2731 90° East 450 518 37,000  Level Chicago Center
01:55PM 42.4956 -87.1089 91° East 441 507 37,000  Level Chicago Center
01:56PM 42.4950 -86.9461 90° East 435 501 37,000  Level Chicago Center
01:57PM 42.4928 -86.7803 91° East 441 507 37,000  Level Chicago Center
01:58PM 42.4917 -86.6014 90° East 442 509 37,000  Level Chicago Center
01:59PM 42.4897 -86.4394 91° East 434 499 37,000  Level Chicago Center
02:00PM 42.4875 -86.2739 91° East 441 507 37,000  Level Chicago Center
02:01PM 42.4839 -86.1072 92° East 446 513 37,000  Level Chicago Center
02:02PM 42.4814 -85.9394 91° East 448 516 37,000  Level Chicago Center
02:03PM 42.4781 -85.7342 91° East 451 519 37,000  Level Chicago Center
02:04PM 42.4747 -85.5692 92° East 452 520 37,000  Level Chicago Center
02:05PM 42.4714 -85.4003 91° East 452 520 37,000  Level Chicago Center
02:06PM 42.4678 -85.2364 92° East 442 509 37,000  Level Chicago Center
02:07PM 42.4642 -85.0744 92° East 433 498 37,000  Level Chicago Center
02:08PM 42.4594 -84.8833 92° East 427 491 37,000  Level Chicago Center
02:09PM 42.4542 -84.7236 93° East 427 491 37,000  Level Chicago Center
02:10PM 42.4500 -84.5631 92° East 428 493 37,000  Level Chicago Center
02:11PM 42.4431 -84.3933 93° East 427 491 37,000  Level Cleveland Center
02:12PM 42.4375 -84.2381 93° East 427 491 37,000  Level Cleveland Center
02:13PM 42.4322 -84.0775 92° East 427 491 37,000  Level Cleveland Center
02:14PM 42.4267 -83.9056 92° East 422 486 37,000  Level Cleveland Center
02:15PM 42.4208 -83.7419 93° East 422 486 37,000  Level Cleveland Center
02:16PM 42.4189 -83.5872 91° East 422 486 37,000  Level Cleveland Center
02:17PM 42.4061 -83.4289 96° East 427 491 37,000  Level Cleveland Center
02:18PM 42.4017 -83.2714 92° East 422 486 37,000  Level Cleveland Center
02:19PM 42.3950 -83.1081 93° East 428 493 37,000  Level Cleveland Center
02:20PM 42.3900 -82.9503 92° East 423 487 37,000  Level Cleveland Center
02:21PM 42.3806 -82.7925 95° East 423 487 37,000 -300 Level Cleveland Center
02:22PM 42.3753 -82.6322 92° East 423 487 36,500 -540 Descending Cleveland Center
02:23PM 42.3694 -82.4803 93° East 423 487 36,000 -300 Descending Cleveland Center
02:24PM 42.3614 -82.3283 94° East 423 487 36,000  Level Cleveland Center
02:25PM 42.3553 -82.1764 93° East 412 474 36,000  Level Cleveland Center
02:26PM 42.3508 -82.0414 93° East 407 468 36,000  Level Cleveland Center
02:27PM 42.3444 -81.8753 93° East 402 463 36,000  Level Cleveland Center
02:28PM 42.3378 -81.7236 93° East 407 468 36,000  Level Cleveland Center
02:29PM 42.3308 -81.5747 94° East 407 468 36,000  Level Cleveland Center
02:30PM 42.3236 -81.4228 94° East 407 468 36,000  Level Cleveland Center
02:31PM 42.3164 -81.2683 94° East 406 467 36,000  Level Cleveland Center
02:32PM 42.3089 -81.1167 94° East 406 467 36,000  Level Cleveland Center
02:33PM 42.3011 -80.9650 94° East 400 460 36,000  Level Cleveland Center
02:34PM 42.2933 -80.8303 94° East 410 472 36,000  Level Cleveland Center
02:35PM 42.2872 -80.6758 93° East 405 466 36,000  Level Cleveland Center
02:36PM 42.2767 -80.5214 95° East 405 466 36,000  Level Cleveland Center
02:37PM 42.2683 -80.3672 94° East 410 472 36,000  Level Cleveland Center
02:38PM 42.2594 -80.2156 94° East 410 472 36,000  Level Cleveland Center
02:39PM 42.2486 -80.0586 95° East 410 472 36,000  Level Cleveland Center
02:40PM 42.2392 -79.8906 94° East 410 472 36,000  Level Cleveland Center
02:41PM 42.2300 -79.7336 94° East 404 465 36,000  Level Cleveland Center
02:42PM 42.2203 -79.5822 95° East 404 465 36,000  Level Cleveland Center
02:43PM 42.2086 -79.4283 96° East 404 465 36,000  Level Cleveland Center
02:44PM 42.1986 -79.2742 95° East 404 465 36,000  Level Cleveland Center
02:45PM 42.1883 -79.1231 95° East 404 465 36,000  Level Cleveland Center
02:46PM 42.1531 -78.9756 108° East 410 472 36,000  Level Cleveland Center
02:47PM 42.1156 -78.8308 109° East 410 472 36,000  Level Cleveland Center
02:48PM 42.0797 -78.6836 108° East 410 472 36,000  Level Cleveland Center
02:49PM 42.0419 -78.5364 109° East 410 472 36,000  Level Cleveland Center
02:50PM 42.0039 -78.3953 110° East 410 472 36,000  Level Cleveland Center
02:51PM 41.9675 -78.2511 109° East 404 465 36,000  Level Cleveland Center
02:53PM 41.8672 -78.0822 129° Southeast 390 449 36,000  Level New York Center
02:54PM 41.8572 -77.9364 95° East 369 425 36,000  Level New York Center
02:55PM 41.8453 -77.7875 96° East 375 432 36,000  Level New York Center
02:56PM 41.8100 -77.6444 108° East 388 447 36,000  Level New York Center
02:57PM 41.7739 -77.5072 109° East 394 453 36,000  Level New York Center
02:58PM 41.7361 -77.3672 110° East 394 453 36,000  Level New York Center
02:59PM 41.6978 -77.2272 110° East 394 453 36,000 -180 Level New York Center
03:00PM 41.6597 -77.0875 110° East 394 453 35,700 -660 Descending New York Center
03:01PM 41.6250 -76.9539 109° East 394 453 34,700 -1,020 Descending New York Center
03:02PM 41.5903 -76.8203 109° East 389 448 33,700 -1,020 Descending New York Center
03:03PM 41.5528 -76.6922 111° Southeast 384 442 32,700 -1,020 Descending New York Center
03:04PM 41.5158 -76.5558 110° East 378 435 31,700 -900 Descending New York Center
03:05PM 41.4842 -76.4367 109° East 378 435 30,900 -960 Descending New York Center
03:06PM 41.4431 -76.2922 111° Southeast 388 447 29,800 -1,080 Descending New York Center
03:07PM 41.4039 -76.1450 109° East 406 467 28,800 -1,020 Descending New York Center
03:08PM 41.3642 -76.0092 111° Southeast 406 467 27,800 -1,020 Descending New York Center
03:09PM 41.3244 -75.8736 111° Southeast 394 453 26,800 -1,020 Descending New York Center
03:10PM 41.2864 -75.7381 110° East 394 453 25,800 -1,020 Descending New York Center
03:11PM 41.2419 -75.6025 114° Southeast 394 453 24,800 -1,020 Descending New York Center
03:12PM 41.1992 -75.4725 114° Southeast 394 453 23,800 -900 Descending New York Center
03:13PM 41.1564 -75.3428 114° Southeast 384 442 23,000 -420 Descending New York Center
03:14PM 41.1133 -75.2158 114° Southeast 384 442 23,000  Level New York Center
03:15PM 41.0681 -75.0864 115° Southeast 384 442 23,000  Level New York Center
03:16PM 41.0233 -74.9461 113° Southeast 384 442 23,000 -60 Level New York Center
03:17PM 40.9881 -74.8172 110° East 378 435 22,900 -600 Descending New York Center
03:18PM 40.9742 -74.6736 97° East 383 441 21,900 -1,020 Descending New York Center
03:19PM 40.9578 -74.5353 99° East 383 441 20,900 -1,020 Descending New York Center
03:20PM 40.9436 -74.3944 98° East 383 441 19,900 -960 Descending New York Center
03:21PM 40.9289 -74.2592 98° East 383 441 19,000 -480 Descending New York Center
03:22PM 40.9117 -74.1375 101° East 352 405 19,000 -360 Level New York Center
03:23PM 40.8333 -74.0833 152° Southeast 293 337 18,300 -1,140 Descending New York TRACON
03:24PM 40.7667 -74.0833 180° South 293 337 16,700 -1,560 Descending New York TRACON
03:25PM 40.6833 -74.0667 171° South 289 333 15,200 -1,440 Descending New York TRACON
03:26PM 40.6000 -74.0667 180° South 277 319 13,900 -1,140 Descending New York TRACON
03:27PM 40.5500 -74.0167 143° Southeast 280 322 13,000 -480 Descending New York TRACON
03:28PM 40.5000 -73.9333 128° Southeast 283 326 13,000  Level New York TRACON
03:29PM 40.4333 -73.9333 180° South 227 261 13,000  Level New York TRACON
03:30PM 40.3667 -73.9167 169° South 223 257 13,000 -120 Level New York TRACON
03:31PM 40.3167 -73.9167 180° South 227 261 12,800 -840 Descending New York TRACON
03:32PM 40.2636 -73.9072 172° South 231 266 11,400 -1,560 Descending New York Center
03:33PM 40.2217 -73.8372 128° Southeast 211 243 9,800 -1,380 Descending New York Center
03:34PM 40.1878 -73.7786 127° Southeast 220 253 8,700 -1,080 Descending New York Center
03:35PM 40.2333 -73.7167 46° Northeast 265 305 7,600 -840 Descending New York TRACON
03:36PM 40.3000 -73.6833 21° North 255 293 7,000 -300 Descending New York TRACON
03:37PM 40.3667 -73.6500 21° North 252 290 7,000  Level New York TRACON
03:38PM 40.4333 -73.6000 30° Northeast 250 288 7,000  Level New York TRACON
03:39PM 40.4833 -73.5500 37° Northeast 252 290 7,000 -60 Level New York TRACON
03:40PM 40.5500 -73.5000 30° Northeast 251 289 6,900 -600 Descending New York TRACON
03:41PM 40.6167 -73.4667 21° North 249 287 5,900 -960 Descending New York TRACON
03:42PM 40.6833 -73.4667 360° North 248 285 5,000 -840 Descending New York TRACON
03:43PM 40.7333 -73.5000 333° Northwest 247 284 4,300 -720 Descending New York TRACON